Terminal Aerodrome Forecast
Issued by NWS

Home | Current Version | Previous Version | Text Only | Print | Product List | Glossary On
Versions: 1 2 3 4 5 6 7 8 9 10 11 12 13 14 15 16
000
FTUS42 TJSJ 241149
TAFJSJ
TAF
TJSJ 241149Z 2412/2512 08012KT 5SM SHRA VCTS SCT020CB BKN040
     FM242000 18006KT P6SM VCTS SCT025CB BKN050
     FM250200 00000KT P6SM VCSH SCT030 SCT070=

USA.gov is the U.S. government's official web portal to all federal, state and local government web resources and services.